Trotwood, Ohio
Current Conditions -  °F | °C
As of 8:56 AM on Monday 20 Oct 2014 (Local Time) from KDAY Reporting Station
Broken Clouds Broken Clouds  
Wind Chill: 44°   Ceiling: 9500
Heat Index: 49°   Visibility: 10mi
Dew Point: 43°   Wind: 12mph
Humidity: 80%   Direction: 190°S
Pressure: 29.97"   Gusts: NA
Location:  39.8348°N, 84.2576°W
Report Text: KDAY 201256Z 19010KT 10SM BKN095 BKN120 09/06 A2997 RMK AO2 SLP151 T00940061
Loading
Personal Weather Stations






























Interactive Weather Map
Tropical Storm Tracking
New forecast layout! Learn more

10-Day Weather Forecast

Advertisements
Track Severe Weather on mobile